Time;durP1;ratioP1;P1;durP2;ratioP2;P2;SDS_P1;SDS_P2;PMS_P1;PMS_P2;Temp;Humidity;BMP_temperature;BMP_pressure;BME280_temperature;BME280_humidity;BME280_pressure;Samples;Min_cycle;Max_cycle;Signal;HPM_P1;HPM_P2
2022/02/02 00:02:21;;;;;;;8.10;1.40;;;;;;;;;;4957111;28;20062;-63
2022/02/02 00:05:00;;;;;;;7.57;1.48;;;;;;;;;;4985579;28;20411;-63
2022/02/02 00:07:46;;;;;;;7.28;1.58;;;;;;;;;;4995776;28;20050;-63
2022/02/02 00:23:51;;;;;;;4.22;1.50;;;;;;;;;;4912817;29;20052;-63
2022/02/02 00:26:29;;;;;;;4.72;1.20;;;;;;;;;;4912902;29;20064;-62
2022/02/02 00:29:05;;;;;;;5.25;1.63;;;;;;;;;;4913218;29;20917;-63
2022/02/02 00:31:49;;;;;;;6.43;1.52;;;;;;;;;;4962486;28;20055;-63
2022/02/02 00:34:24;;;;;;;9.27;1.38;;;;;;;;;;4931408;29;20048;-63
2022/02/02 00:36:58;;;;;;;4.90;1.40;;;;;;;;;;4931378;29;20055;-63
2022/02/02 00:39:29;;;;;;;5.50;1.38;;;;;;;;;;4965109;28;20074;-62
2022/02/02 00:42:02;;;;;;;3.85;1.02;;;;;;;;;;4955807;28;20063;-63
2022/02/02 00:44:33;;;;;;;7.05;1.48;;;;;;;;;;4970065;28;20047;-63
2022/02/02 00:47:04;;;;;;;2.60;1.02;;;;;;;;;;4972579;28;20058;-63
2022/02/02 00:49:36;;;;;;;4.03;1.40;;;;;;;;;;4989094;28;20054;-63
2022/02/02 00:52:07;;;;;;;5.45;1.27;;;;;;;;;;4989303;28;20058;-63
2022/02/02 00:54:37;;;;;;;3.17;1.40;;;;;;;;;;4924661;28;20059;-63
2022/02/02 00:57:08;;;;;;;6.38;1.65;;;;;;;;;;4988850;28;20059;-63
2022/02/02 00:59:38;;;;;;;8.38;1.45;;;;;;;;;;4969365;28;20051;-63
2022/02/02 01:02:10;;;;;;;7.57;1.58;;;;;;;;;;4921786;28;20422;-63
2022/02/02 01:04:40;;;;;;;;;;;;;;;;;;4954004;28;20066;-63
2022/02/02 01:10:03;;;;;;;12.63;1.52;;;;;;;;;;4960561;28;20094;-63
2022/02/02 01:12:50;;;;;;;6.45;1.65;;;;;;;;;;4940859;28;20051;-63
2022/02/02 01:16:14;;;;;;;4.95;1.48;;;;;;;;;;4956944;28;20070;-63
2022/02/02 01:21:00;;;;;;;8.43;1.67;;;;;;;;;;4989116;28;20495;-63
2022/02/02 01:29:09;;;;;;;6.53;1.40;;;;;;;;;;4962825;28;20485;-63
2022/02/02 01:31:41;;;;;;;9.02;1.85;;;;;;;;;;5059539;28;20053;-63
2022/02/02 01:34:11;;;;;;;4.50;1.83;;;;;;;;;;5058556;28;20063;-63
2022/02/02 01:36:42;;;;;;;10.45;1.80;;;;;;;;;;5090524;28;20040;-63
2022/02/02 01:39:14;;;;;;;10.57;1.60;;;;;;;;;;5054934;28;20081;-63
2022/02/02 01:41:45;;;;;;;;;;;;;;;;;;5072015;28;20419;-63
2022/02/02 01:44:26;;;;;;;;;;;;;;;;;;5090127;28;19920;-63
2022/02/02 01:46:58;;;;;;;10.85;1.70;;;;;;;;;;5090743;28;20339;-63
2022/02/02 01:52:36;;;;;;;6.93;1.80;;;;;;;;;;5094396;28;20048;-63
2022/02/02 01:55:09;;;;;;;5.65;1.67;;;;;;;;;;5091506;28;20536;-63
2022/02/02 01:57:58;;;;;;;7.57;1.90;;;;;;;;;;5075369;28;20048;-63
2022/02/02 02:00:28;;;;;;;11.10;2.13;;;;;;;;;;5091904;28;20047;-63
2022/02/02 02:02:59;;;;;;;5.70;2.08;;;;;;;;;;5051543;28;20412;-63
2022/02/02 02:05:30;;;;;;;7.18;1.60;;;;;;;;;;5051736;28;20053;-63
2022/02/02 02:08:01;;;;;;;10.25;1.70;;;;;;;;;;5052070;28;20508;-63
2022/02/02 02:10:31;;;;;;;4.45;1.65;;;;;;;;;;5031021;28;20050;-63
2022/02/02 02:13:10;;;;;;;9.48;1.88;;;;;;;;;;5031678;28;20060;-64
2022/02/02 02:15:43;;;;;;;7.63;1.90;;;;;;;;;;5031323;28;20235;-64
2022/02/02 02:18:14;;;;;;;6.03;1.67;;;;;;;;;;5011274;28;20050;-63
2022/02/02 02:20:44;;;;;;;11.32;2.05;;;;;;;;;;4995274;28;20061;-63
2022/02/02 02:23:14;;;;;;;9.10;2.10;;;;;;;;;;5011563;28;20062;-63
2022/02/02 02:25:45;;;;;;;6.50;2.47;;;;;;;;;;5011554;28;20421;-64
2022/02/02 02:36:33;;;;;;;7.78;1.80;;;;;;;;;;5011287;28;20069;-64
2022/02/02 02:39:21;;;;;;;9.48;2.22;;;;;;;;;;5024026;28;20053;-64
2022/02/02 02:56:01;;;;;;;4.88;2.30;;;;;;;;;;5092018;28;20059;-63
2022/02/02 03:56:37;;;;;;;5.22;1.98;;;;;;;;;;5089609;28;20397;-64
2022/02/02 04:02:04;;;;;;;10.02;2.35;;;;;;;;;;5089346;28;20050;-63
2022/02/02 04:07:16;;;;;;;14.15;2.20;;;;;;;;;;5089340;28;20060;-63
2022/02/02 04:09:48;;;;;;;8.40;2.20;;;;;;;;;;5052109;28;20047;-64
2022/02/02 04:15:54;;;;;;;10.57;1.80;;;;;;;;;;5068777;28;20123;-63
2022/02/02 04:51:33;;;;;;;7.80;1.80;;;;;;;;;;5054807;28;20052;-64
2022/02/02 04:59:36;;;;;;;10.63;2.00;;;;;;;;;;5068262;28;20048;-64
2022/02/02 05:27:45;;;;;;;12.60;2.22;;;;;;;;;;4973426;28;20062;-63
2022/02/02 05:53:02;;;;;;;4.80;1.42;;;;;;;;;;5007465;28;20050;-68
2022/02/02 05:55:38;;;;;;;5.63;1.80;;;;;;;;;;4961079;28;20549;-68
2022/02/02 05:58:09;;;;;;;7.13;2.13;;;;;;;;;;4958828;28;20046;-68
2022/02/02 06:00:40;;;;;;;7.68;1.73;;;;;;;;;;5007367;28;20054;-68
2022/02/02 06:03:13;;;;;;;5.88;1.80;;;;;;;;;;5007363;28;20576;-68
2022/02/02 06:05:44;;;;;;;8.13;1.90;;;;;;;;;;5007262;28;20421;-67
2022/02/02 06:08:16;;;;;;;3.83;1.70;;;;;;;;;;5007279;28;20061;-67
2022/02/02 06:10:46;;;;;;;4.13;1.67;;;;;;;;;;4958421;28;20405;-69
2022/02/02 06:13:17;;;;;;;4.68;1.80;;;;;;;;;;4958689;28;20707;-68
2022/02/02 06:15:49;;;;;;;6.85;2.10;;;;;;;;;;4959473;28;20057;-67
2022/02/02 06:18:25;;;;;;;4.60;1.77;;;;;;;;;;5007017;28;20061;-67
2022/02/02 06:21:00;;;;;;;6.63;2.20;;;;;;;;;;5007185;28;20046;-68
2022/02/02 06:23:34;;;;;;;9.38;1.90;;;;;;;;;;4992691;28;20050;-68
2022/02/02 06:26:10;;;;;;;5.43;1.83;;;;;;;;;;4961660;28;20068;-68
2022/02/02 06:28:45;;;;;;;6.75;2.30;;;;;;;;;;4974111;28;20058;-69
2022/02/02 06:31:15;;;;;;;6.15;2.03;;;;;;;;;;4935322;28;20290;-68
2022/02/02 06:34:00;;;;;;;5.65;1.92;;;;;;;;;;4967383;28;20410;-68
2022/02/02 06:36:31;;;;;;;4.90;1.65;;;;;;;;;;4967598;28;20061;-68
2022/02/02 06:39:04;;;;;;;5.13;1.90;;;;;;;;;;4952213;28;20066;-67
2022/02/02 06:41:36;;;;;;;7.38;1.70;;;;;;;;;;4944377;29;20059;-68
2022/02/02 06:44:07;;;;;;;5.32;1.63;;;;;;;;;;4939080;29;20068;-68
2022/02/02 06:46:39;;;;;;;3.83;2.05;;;;;;;;;;4954489;29;20055;-68
2022/02/02 06:49:10;;;;;;;7.20;1.52;;;;;;;;;;4931631;29;20060;-67
2022/02/02 06:51:52;;;;;;;3.60;1.90;;;;;;;;;;4901317;29;20076;-68
2022/02/02 06:54:42;;;;;;;7.65;2.15;;;;;;;;;;4916082;29;20424;-68
2022/02/02 06:57:33;;;;;;;6.40;1.70;;;;;;;;;;4916310;29;20164;-68
2022/02/02 07:00:16;;;;;;;7.78;1.80;;;;;;;;;;4863577;29;20063;-68
2022/02/02 07:03:07;;;;;;;3.78;1.70;;;;;;;;;;4850917;29;20430;-67
2022/02/02 07:05:52;;;;;;;10.45;2.00;;;;;;;;;;4835784;29;20067;-68
2022/02/02 07:08:33;;;;;;;7.82;1.63;;;;;;;;;;4879690;29;20057;-69
2022/02/02 07:16:29;;;;;;;3.67;1.70;;;;;;;;;;4916181;29;20044;-69
2022/02/02 07:22:09;;;;;;;5.65;1.65;;;;;;;;;;4916412;29;20056;-69
2022/02/02 07:27:39;;;;;;;8.30;2.17;;;;;;;;;;4946068;29;20169;-69
2022/02/02 07:33:10;;;;;;;5.40;2.10;;;;;;;;;;4952459;29;20063;-69
2022/02/02 07:38:43;;;;;;;7.57;2.05;;;;;;;;;;4969429;28;20042;-69
2022/02/02 07:41:26;;;;;;;3.38;1.73;;;;;;;;;;4940907;28;20063;-68
2022/02/02 07:44:04;;;;;;;7.22;1.58;;;;;;;;;;4924629;29;20054;-69
2022/02/02 07:46:37;;;;;;;7.88;2.00;;;;;;;;;;4953667;29;20099;-68
2022/02/02 07:49:09;;;;;;;3.25;1.50;;;;;;;;;;4953415;29;20051;-69
2022/02/02 07:51:41;;;;;;;6.18;1.92;;;;;;;;;;4953152;29;20051;-69
2022/02/02 07:54:19;;;;;;;4.60;1.75;;;;;;;;;;4952548;28;20411;-69
2022/02/02 07:57:05;;;;;;;4.82;1.90;;;;;;;;;;4907525;29;20075;-68
2022/02/02 07:59:45;;;;;;;3.92;2.10;;;;;;;;;;4934099;29;20493;-68
2022/02/02 08:02:19;;;;;;;4.97;1.77;;;;;;;;;;4911127;29;20063;-69
2022/02/02 08:04:54;;;;;;;;;;;;;;;;;;4896696;29;20061;-68
2022/02/02 08:07:30;;;;;;;3.85;1.35;;;;;;;;;;4849638;29;19930;-69
2022/02/02 08:10:12;;;;;;;4.88;1.80;;;;;;;;;;4879772;29;20049;-69
2022/02/02 08:12:46;;;;;;;5.57;1.75;;;;;;;;;;4864874;29;20076;-70
2022/02/02 08:15:19;;;;;;;5.18;1.90;;;;;;;;;;4880615;29;20057;-67
2022/02/02 08:17:52;;;;;;;5.32;2.25;;;;;;;;;;4914805;29;20059;-69
2022/02/02 08:20:23;;;;;;;;;;;;;;;;;;4915142;29;20063;-68
2022/02/02 08:22:53;;;;;;;3.80;1.80;;;;;;;;;;4914800;29;19931;-69
2022/02/02 08:25:28;;;;;;;4.68;1.83;;;;;;;;;;4914863;29;20048;-68
2022/02/02 08:28:03;;;;;;;6.28;2.05;;;;;;;;;;4914674;29;20059;-68
2022/02/02 08:30:33;;;;;;;8.20;2.08;;;;;;;;;;4917660;29;20063;-67
2022/02/02 08:33:07;;;;;;;4.20;1.65;;;;;;;;;;4948815;29;20471;-68
2022/02/02 08:35:42;;;;;;;9.68;1.75;;;;;;;;;;4950748;29;20043;-68
2022/02/02 08:41:18;;;;;;;5.95;1.70;;;;;;;;;;4801409;29;20073;-67
2022/02/02 08:44:08;;;;;;;;;;;;;;;;;;4828728;29;20156;-67
2022/02/02 08:46:40;;;;;;;4.55;1.88;;;;;;;;;;4858364;29;20308;-68
2022/02/02 08:49:13;;;;;;;5.03;2.13;;;;;;;;;;4879741;29;20429;-69
2022/02/02 08:51:46;;;;;;;4.10;1.90;;;;;;;;;;4895418;29;20104;-68
2022/02/02 08:59:27;;;;;;;10.07;2.15;;;;;;;;;;4914110;29;20063;-67
2022/02/02 09:02:01;;;;;;;4.38;1.90;;;;;;;;;;4879624;29;20059;-68
2022/02/02 09:07:20;;;;;;;8.98;2.10;;;;;;;;;;4862364;29;20391;-68
2022/02/02 09:21:45;;;;;;;10.85;2.20;;;;;;;;;;4895018;29;20056;-68
2022/02/02 09:24:00;;;;;;;4.63;1.92;;;;;;;;;;4864166;29;20064;-68
2022/02/02 09:31:27;;;;;;;5.90;2.10;;;;;;;;;;4895140;29;20056;-68
2022/02/02 09:32:26;;;;;;;6.78;2.22;;;;;;;;;;4906086;29;20060;-70
2022/02/02 09:34:57;;;;;;;9.63;2.58;;;;;;;;;;4926395;29;20060;-68
2022/02/02 09:37:28;;;;;;;5.22;2.40;;;;;;;;;;4932652;29;20048;-67
2022/02/02 09:40:21;;;;;;;7.13;2.15;;;;;;;;;;4906361;29;20067;-67
2022/02/02 09:42:56;;;;;;;10.13;2.30;;;;;;;;;;4958824;28;20503;-68
2022/02/02 09:45:28;;;;;;;7.18;2.45;;;;;;;;;;4955028;28;20063;-69
2022/02/02 09:48:07;;;;;;;7.18;2.17;;;;;;;;;;4913372;29;20052;-68
2022/02/02 09:50:46;;;;;;;5.95;2.08;;;;;;;;;;4913555;29;20104;-67
2022/02/02 09:53:33;;;;;;;4.15;2.10;;;;;;;;;;4913695;29;20428;-68
2022/02/02 10:05:15;;;;;;;7.55;2.00;;;;;;;;;;4856824;29;20054;-67
2022/02/02 10:11:01;;;;;;;6.82;2.10;;;;;;;;;;4857313;29;20090;-69
2022/02/02 10:16:16;;;;;;;10.27;2.30;;;;;;;;;;4857893;29;20172;-69
2022/02/02 10:18:46;;;;;;;7.78;2.28;;;;;;;;;;4875385;29;20052;-67
2022/02/02 10:21:32;;;;;;;5.70;1.92;;;;;;;;;;4860332;29;20060;-68
2022/02/02 10:24:03;;;;;;;8.23;2.45;;;;;;;;;;4860488;29;20525;-69
2022/02/02 10:26:42;;;;;;;5.10;1.85;;;;;;;;;;4849902;29;20061;-68
2022/02/02 10:29:15;;;;;;;6.60;1.98;;;;;;;;;;4878741;29;20060;-69
2022/02/02 10:31:50;;;;;;;8.05;2.50;;;;;;;;;;4878611;29;20061;-68
2022/02/02 10:34:22;;;;;;;7.38;2.65;;;;;;;;;;4878917;29;20510;-68
2022/02/02 10:37:18;;;;;;;7.65;2.42;;;;;;;;;;4848019;29;20425;-70
2022/02/02 10:39:49;;;;;;;6.78;2.35;;;;;;;;;;4878761;29;20061;-69
2022/02/02 10:42:41;;;;;;;7.13;2.58;;;;;;;;;;4906664;29;20419;-69
2022/02/02 10:45:19;;;;;;;16.27;2.20;;;;;;;;;;4954539;29;20059;-69
2022/02/02 10:47:58;;;;;;;9.98;2.63;;;;;;;;;;4954461;29;20148;-68
2022/02/02 10:50:36;;;;;;;10.65;2.60;;;;;;;;;;4954315;29;20074;-69
2022/02/02 10:53:28;;;;;;;8.75;2.17;;;;;;;;;;4938082;29;20043;-68
2022/02/02 10:59:40;;;;;;;7.65;2.42;;;;;;;;;;4883483;29;20052;-68
2022/02/02 11:07:56;;;;;;;6.25;2.13;;;;;;;;;;4831281;29;20060;-68
2022/02/02 11:10:29;;;;;;;8.05;3.83;;;;;;;;;;4878407;29;20061;-69
2022/02/02 11:13:02;;;;;;;4.68;2.20;;;;;;;;;;4878390;29;20065;-69
2022/02/02 11:16:01;;;;;;;7.45;2.22;;;;;;;;;;4878156;29;20060;-66
2022/02/02 11:18:36;;;;;;;4.45;1.85;;;;;;;;;;4859803;29;20062;-69
2022/02/02 11:21:09;;;;;;;6.85;2.88;;;;;;;;;;4859687;29;20561;-68
2022/02/02 11:23:51;;;;;;;4.00;2.03;;;;;;;;;;4859809;29;20072;-67
2022/02/02 11:26:42;;;;;;;5.95;1.88;;;;;;;;;;4844469;29;20065;-69
2022/02/02 11:29:38;;;;;;;4.47;2.42;;;;;;;;;;4841362;29;20530;-69
2022/02/02 11:32:14;;;;;;;3.42;2.05;;;;;;;;;;4877715;29;20476;-69
2022/02/02 11:34:45;;;;;;;4.80;1.83;;;;;;;;;;4843192;29;20117;-69
2022/02/02 11:37:15;;;;;;;5.38;1.70;;;;;;;;;;4856938;29;20069;-68
2022/02/02 11:40:02;;;;;;;4.10;1.88;;;;;;;;;;4840964;29;20072;-66
2022/02/02 11:42:53;;;;;;;3.58;1.88;;;;;;;;;;4855606;29;20211;-67
2022/02/02 11:45:39;;;;;;;3.13;1.98;;;;;;;;;;4898882;29;20063;-66
2022/02/02 11:48:17;;;;;;;2.72;1.80;;;;;;;;;;4914109;29;20056;-66
2022/02/02 11:50:55;;;;;;;4.65;1.88;;;;;;;;;;4897677;29;20071;-67
2022/02/02 11:53:50;;;;;;;4.55;1.77;;;;;;;;;;4914240;29;20134;-67
2022/02/02 11:56:27;;;;;;;5.13;2.10;;;;;;;;;;4962357;28;20057;-68
2022/02/02 11:58:58;;;;;;;2.83;1.55;;;;;;;;;;4971129;28;20058;-67
2022/02/02 12:01:42;;;;;;;5.22;2.10;;;;;;;;;;4939516;28;20062;-68
2022/02/02 12:04:35;;;;;;;3.05;1.70;;;;;;;;;;4970241;28;20103;-68
2022/02/02 12:07:15;;;;;;;4.18;1.55;;;;;;;;;;4974487;28;20053;-66
2022/02/02 12:09:56;;;;;;;9.20;2.03;;;;;;;;;;4967678;28;20050;-70
2022/02/02 12:49:58;;;;;;;4.25;1.50;;;;;;;;;;4918411;29;20055;-66
2022/02/02 12:58:24;;;;;;;2.05;1.45;;;;;;;;;;4951301;29;19929;-67
2022/02/02 13:01:09;;;;;;;5.40;1.52;;;;;;;;;;4957481;28;20057;-66
2022/02/02 13:03:43;;;;;;;2.38;1.25;;;;;;;;;;4959246;28;20061;-65
2022/02/02 13:06:23;;;;;;;3.75;1.50;;;;;;;;;;5002831;28;20717;-67
2022/02/02 13:08:54;;;;;;;1.83;1.40;;;;;;;;;;4985033;28;20053;-68
2022/02/02 13:11:31;;;;;;;3.25;1.25;;;;;;;;;;4989278;28;20414;-67
2022/02/02 13:14:09;;;;;;;3.38;1.10;;;;;;;;;;5000138;28;20073;-65
2022/02/02 13:16:39;;;;;;;3.33;1.33;;;;;;;;;;5001910;28;20081;-66
2022/02/02 13:19:26;;;;;;;2.97;1.30;;;;;;;;;;4965990;28;20437;-67
2022/02/02 13:22:06;;;;;;;2.00;1.20;;;;;;;;;;5015294;28;20421;-69
2022/02/02 13:24:37;;;;;;;3.30;1.35;;;;;;;;;;4999563;28;20045;-67
2022/02/02 13:27:16;;;;;;;;;;;;;;;;;;4999368;28;20054;-65
2022/02/02 13:29:51;;;;;;;2.50;1.13;;;;;;;;;;4988795;28;19921;-64
2022/02/02 13:35:22;;;;;;;1.75;1.10;;;;;;;;;;4956279;28;20057;-66
2022/02/02 13:38:07;;;;;;;4.50;1.13;;;;;;;;;;4957124;28;20065;-65
2022/02/02 13:44:19;;;;;;;;;;;;;;;;;;;;;
2022/02/02 13:46:48;;;;;;;3.22;1.60;;;;;;;;;;4902653;29;20067;-66
2022/02/02 13:50:00;;;;;;;2.60;1.73;;;;;;;;;;4911374;29;20530;-66
2022/02/02 13:52:49;;;;;;;2.25;1.30;;;;;;;;;;4857570;29;20595;-66
2022/02/02 14:01:17;;;;;;;2.05;1.23;;;;;;;;;;4878379;29;20420;-65
2022/02/02 14:04:09;;;;;;;3.38;1.20;;;;;;;;;;4875774;29;20053;-67
2022/02/02 14:33:59;;;;;;;2.85;1.10;;;;;;;;;;4936643;28;20051;-66
2022/02/02 14:36:36;;;;;;;2.22;1.02;;;;;;;;;;4986584;28;20051;-65
2022/02/02 14:39:17;;;;;;;2.00;0.93;;;;;;;;;;4922679;29;20055;-65
2022/02/02 14:42:02;;;;;;;3.15;1.10;;;;;;;;;;4933810;29;20149;-64
2022/02/02 14:44:37;;;;;;;4.07;1.25;;;;;;;;;;4933744;29;20063;-67
2022/02/02 14:47:31;;;;;;;;;;;;;;;;;;4934473;29;20508;-66
2022/02/02 14:50:10;;;;;;;2.65;0.95;;;;;;;;;;4933607;29;19923;-64
2022/02/02 15:31:41;;;;;;;1.65;1.00;;;;;;;;;;4876103;29;20061;-68
2022/02/02 15:34:44;;;;;;;2.40;0.95;;;;;;;;;;4857723;29;20053;-67
2022/02/02 15:40:05;;;;;;;1.92;1.05;;;;;;;;;;4854777;29;20077;-66
2022/02/02 15:57:21;;;;;;;2.38;0.98;;;;;;;;;;4932804;29;20063;-67
2022/02/02 16:02:17;;;;;;;1.90;0.88;;;;;;;;;;4941632;28;20513;-66
2022/02/02 16:04:48;;;;;;;2.50;0.98;;;;;;;;;;4956052;28;20557;-66
2022/02/02 16:07:28;;;;;;;1.15;0.90;;;;;;;;;;4959914;28;20054;-67
2022/02/02 16:10:06;;;;;;;1.73;1.05;;;;;;;;;;4979474;28;20042;-65
2022/02/02 16:12:43;;;;;;;1.80;1.00;;;;;;;;;;4988337;28;20058;-66
2022/02/02 16:15:20;;;;;;;1.42;0.80;;;;;;;;;;4967689;28;20054;-68
2022/02/02 16:31:48;;;;;;;1.77;1.27;;;;;;;;;;4956757;28;20054;-64
2022/02/02 16:37:10;;;;;;;2.25;1.13;;;;;;;;;;4989052;28;20506;-67
2022/02/02 16:39:52;;;;;;;1.23;1.02;;;;;;;;;;4988913;28;20050;-66
2022/02/02 16:45:16;;;;;;;2.28;1.02;;;;;;;;;;4986156;28;20050;-67
2022/02/02 16:47:47;;;;;;;2.35;0.82;;;;;;;;;;4936387;28;20050;-66
2022/02/02 16:50:22;;;;;;;2.05;0.90;;;;;;;;;;4980737;28;20057;-65
2022/02/02 16:52:56;;;;;;;1.40;1.00;;;;;;;;;;4987804;28;20051;-66
2022/02/02 16:55:36;;;;;;;2.53;1.17;;;;;;;;;;4999148;28;20046;-65
2022/02/02 17:24:09;;;;;;;1.52;0.93;;;;;;;;;;4995757;28;20397;-65
2022/02/02 17:35:08;;;;;;;2.28;0.80;;;;;;;;;;4828477;29;20061;-64
2022/02/02 17:40:19;;;;;;;2.22;0.98;;;;;;;;;;4887205;29;20753;-66
2022/02/02 17:43:07;;;;;;;0.98;0.85;;;;;;;;;;4846548;29;20059;-65
2022/02/02 17:45:47;;;;;;;0.85;0.80;;;;;;;;;;4892588;29;20496;-66
2022/02/02 18:19:27;;;;;;;1.67;0.88;;;;;;;;;;4927733;29;20059;-65
2022/02/02 18:21:57;;;;;;;1.98;0.75;;;;;;;;;;4926778;29;20055;-66
2022/02/02 18:24:38;;;;;;;1.05;0.82;;;;;;;;;;4930663;29;20072;-65
2022/02/02 18:27:18;;;;;;;1.65;1.10;;;;;;;;;;4930921;29;20055;-65
2022/02/02 18:35:14;;;;;;;;;;;;;;;;;;4892326;29;19935;-65
2022/02/02 18:43:36;;;;;;;1.23;0.90;;;;;;;;;;4913718;29;20052;-66
2022/02/02 18:53:59;;;;;;;1.90;1.00;;;;;;;;;;4913956;29;20048;-65
2022/02/02 18:59:22;;;;;;;2.65;1.05;;;;;;;;;;4952723;29;20051;-65
2022/02/02 19:02:01;;;;;;;2.08;1.00;;;;;;;;;;4895850;29;20067;-65
2022/02/02 19:04:57;;;;;;;3.17;0.73;;;;;;;;;;4896020;29;20057;-64
2022/02/02 19:38:29;;;;;;;0.93;0.85;;;;;;;;;;4960955;28;20055;-64
2022/02/02 20:11:42;;;;;;;2.80;0.80;;;;;;;;;;4985854;28;20430;-68
2022/02/02 20:14:15;;;;;;;2.05;1.00;;;;;;;;;;4940260;28;20069;-67
2022/02/02 20:16:46;;;;;;;1.85;0.90;;;;;;;;;;4988733;28;20054;-65
2022/02/02 20:19:18;;;;;;;4.18;0.77;;;;;;;;;;4988909;28;20053;-64
2022/02/02 20:21:53;;;;;;;4.80;0.90;;;;;;;;;;4988062;28;20050;-67
2022/02/02 20:24:33;;;;;;;1.65;1.13;;;;;;;;;;4972737;28;20065;-66
2022/02/02 20:27:03;;;;;;;1.95;0.75;;;;;;;;;;4988371;28;20536;-68
2022/02/02 20:29:33;;;;;;;1.30;0.80;;;;;;;;;;4988424;28;20535;-65
2022/02/02 20:32:06;;;;;;;1.95;0.93;;;;;;;;;;4986842;28;20062;-67
2022/02/02 20:34:36;;;;;;;3.35;0.82;;;;;;;;;;4971737;28;20061;-67
2022/02/02 20:37:08;;;;;;;1.33;0.93;;;;;;;;;;4988637;28;20413;-68
2022/02/02 20:40:00;;;;;;;3.85;0.80;;;;;;;;;;4939650;28;20054;-66
2022/02/02 21:04:25;;;;;;;1.50;0.63;;;;;;;;;;4922788;28;20055;-66
2022/02/02 21:10:15;;;;;;;1.00;0.75;;;;;;;;;;4892914;29;20452;-65
2022/02/02 21:15:36;;;;;;;1.05;0.70;;;;;;;;;;4891565;29;20071;-66
2022/02/02 21:18:12;;;;;;;2.03;0.90;;;;;;;;;;4890879;29;20061;-67
2022/02/02 21:26:16;;;;;;;2.35;0.70;;;;;;;;;;4861128;29;20126;-66
2022/02/02 21:28:47;;;;;;;1.30;0.90;;;;;;;;;;4884043;29;20049;-66
2022/02/02 21:31:17;;;;;;;1.63;0.73;;;;;;;;;;4898833;29;20063;-67
2022/02/02 21:33:49;;;;;;;1.05;0.70;;;;;;;;;;4883576;29;20072;-68
2022/02/02 21:36:19;;;;;;;2.35;0.90;;;;;;;;;;4888517;29;20536;-68
2022/02/02 21:39:05;;;;;;;2.20;0.70;;;;;;;;;;4857236;29;20839;-67
2022/02/02 21:41:40;;;;;;;2.97;0.95;;;;;;;;;;4891114;29;20440;-67
2022/02/02 21:44:10;;;;;;;1.90;0.80;;;;;;;;;;4872260;29;20549;-67
2022/02/02 21:46:41;;;;;;;1.73;0.85;;;;;;;;;;4888806;29;20602;-68
2022/02/02 21:49:18;;;;;;;2.20;0.90;;;;;;;;;;4894441;29;20059;-67
2022/02/02 21:52:02;;;;;;;3.28;0.90;;;;;;;;;;4913161;29;20161;-68
2022/02/02 21:54:35;;;;;;;2.25;1.00;;;;;;;;;;4947886;29;20047;-68
2022/02/02 21:57:05;;;;;;;1.25;0.80;;;;;;;;;;4931786;29;20047;-68
2022/02/02 21:59:36;;;;;;;1.70;1.00;;;;;;;;;;4949046;29;20066;-69
2022/02/02 22:02:07;;;;;;;2.35;0.77;;;;;;;;;;4917369;29;20051;-70
2022/02/02 22:04:37;;;;;;;4.28;0.93;;;;;;;;;;4932249;29;20530;-69
2022/02/02 22:07:07;;;;;;;3.67;0.90;;;;;;;;;;4948968;29;20059;-67
2022/02/02 22:09:38;;;;;;;2.70;0.88;;;;;;;;;;4896265;29;20064;-67
2022/02/02 22:12:09;;;;;;;4.50;0.95;;;;;;;;;;4892063;29;20065;-67
2022/02/02 22:14:40;;;;;;;2.78;0.93;;;;;;;;;;4880045;29;20060;-68
2022/02/02 22:17:10;;;;;;;9.38;1.38;;;;;;;;;;4895459;29;20456;-66
2022/02/02 22:19:41;;;;;;;3.00;1.25;;;;;;;;;;4894901;29;20500;-66
2022/02/02 22:22:12;;;;;;;2.92;1.00;;;;;;;;;;4908029;29;20067;-67
2022/02/02 22:24:42;;;;;;;5.28;1.27;;;;;;;;;;4912035;29;20051;-67
2022/02/02 22:27:12;;;;;;;11.20;1.25;;;;;;;;;;4938431;29;20062;-67
2022/02/02 22:29:43;;;;;;;6.57;1.00;;;;;;;;;;4951987;29;20055;-67
2022/02/02 22:32:15;;;;;;;9.90;1.50;;;;;;;;;;4917060;29;20055;-67
2022/02/02 22:34:46;;;;;;;4.68;1.08;;;;;;;;;;4932628;29;20059;-66
2022/02/02 22:37:17;;;;;;;11.75;1.13;;;;;;;;;;4933391;29;20063;-71
2022/02/02 22:39:50;;;;;;;9.63;1.35;;;;;;;;;;4933175;29;20052;-71
2022/02/02 22:42:23;;;;;;;9.95;1.33;;;;;;;;;;4951743;29;20047;-71
2022/02/02 22:44:58;;;;;;;11.27;1.73;;;;;;;;;;4952540;29;20066;-70
2022/02/02 22:47:30;;;;;;;7.68;1.58;;;;;;;;;;4974980;28;20069;-71
2022/02/02 22:50:04;;;;;;;7.10;1.05;;;;;;;;;;4958821;28;20064;-68
2022/02/02 22:52:35;;;;;;;18.08;1.85;;;;;;;;;;4920710;29;20051;-71
2022/02/02 22:55:06;;;;;;;11.50;1.85;;;;;;;;;;4933036;29;20111;-69
2022/02/02 22:57:37;;;;;;;15.45;2.03;;;;;;;;;;4863832;29;20441;-69
2022/02/02 23:00:11;;;;;;;13.40;3.42;;;;;;;;;;4895209;29;20072;-69
2022/02/02 23:02:57;;;;;;;14.95;3.53;;;;;;;;;;4908661;29;20063;-70
2022/02/02 23:05:37;;;;;;;7.47;1.50;;;;;;;;;;4900967;29;20069;-67
2022/02/02 23:08:09;;;;;;;12.13;1.52;;;;;;;;;;4897067;29;20056;-66
2022/02/02 23:10:41;;;;;;;7.18;1.92;;;;;;;;;;4900913;29;20052;-68
2022/02/02 23:13:14;;;;;;;6.30;1.83;;;;;;;;;;4897706;29;20424;-68
2022/02/02 23:18:24;;;;;;;12.45;4.32;;;;;;;;;;4901727;29;20056;-67
2022/02/02 23:21:03;;;;;;;8.55;2.20;;;;;;;;;;4883358;29;20063;-67
2022/02/02 23:23:48;;;;;;;14.57;2.03;;;;;;;;;;4875800;29;20053;-68
2022/02/02 23:26:19;;;;;;;10.05;1.70;;;;;;;;;;4872497;29;20131;-66
2022/02/02 23:28:54;;;;;;;14.32;3.22;;;;;;;;;;4849962;29;20071;-67
2022/02/02 23:31:28;;;;;;;18.25;8.68;;;;;;;;;;4930901;29;20063;-68
2022/02/02 23:33:58;;;;;;;11.43;2.13;;;;;;;;;;4883413;29;20056;-67
2022/02/02 23:36:30;;;;;;;7.95;2.33;;;;;;;;;;4882872;29;20060;-66
2022/02/02 23:39:01;;;;;;;5.03;1.60;;;;;;;;;;4874272;29;20072;-66
2022/02/02 23:44:05;;;;;;;5.15;1.40;;;;;;;;;;4875805;29;20464;-66
2022/02/02 23:46:42;;;;;;;2.53;1.10;;;;;;;;;;4875076;29;20421;-67
2022/02/02 23:49:20;;;;;;;6.13;1.40;;;;;;;;;;4862059;29;20452;-66
2022/02/02 23:51:56;;;;;;;5.15;1.40;;;;;;;;;;4897111;29;20708;-66
2022/02/02 23:54:29;;;;;;;3.35;1.23;;;;;;;;;;4881904;29;20064;-67
2022/02/02 23:57:10;;;;;;;5.65;1.15;;;;;;;;;;4897220;29;20063;-66
